sensor_id;sensor_type;location;lat;lon;timestamp;P1;durP1;ratioP1;P2;durP2;ratioP2
45534;SDS011;35892;48.798;9.698;2022-08-21T00:01:51;11.77;;;1.10;;
45534;SDS011;35892;48.798;9.698;2022-08-21T00:04:19;40.10;;;2.30;;
45534;SDS011;35892;48.798;9.698;2022-08-21T00:06:48;29.95;;;1.80;;
45534;SDS011;35892;48.798;9.698;2022-08-21T00:09:19;12.55;;;1.20;;
45534;SDS011;35892;48.798;9.698;2022-08-21T00:11:49;8.73;;;1.23;;
45534;SDS011;35892;48.798;9.698;2022-08-21T00:14:17;33.40;;;1.90;;
45534;SDS011;35892;48.798;9.698;2022-08-21T00:16:44;36.65;;;2.08;;
45534;SDS011;35892;48.798;9.698;2022-08-21T00:19:19;10.65;;;1.23;;
45534;SDS011;35892;48.798;9.698;2022-08-21T00:21:47;9.07;;;1.00;;
45534;SDS011;35892;48.798;9.698;2022-08-21T00:24:17;9.18;;;1.27;;
45534;SDS011;35892;48.798;9.698;2022-08-21T00:26:45;7.05;;;1.00;;
45534;SDS011;35892;48.798;9.698;2022-08-21T00:29:13;8.93;;;1.40;;
45534;SDS011;35892;48.798;9.698;2022-08-21T00:31:41;16.90;;;1.30;;
45534;SDS011;35892;48.798;9.698;2022-08-21T00:34:09;16.00;;;1.17;;
45534;SDS011;35892;48.798;9.698;2022-08-21T00:36:38;14.50;;;1.50;;
45534;SDS011;35892;48.798;9.698;2022-08-21T00:39:05;21.17;;;1.38;;
45534;SDS011;35892;48.798;9.698;2022-08-21T00:41:34;25.48;;;1.60;;
45534;SDS011;35892;48.798;9.698;2022-08-21T00:44:05;22.90;;;1.27;;
45534;SDS011;35892;48.798;9.698;2022-08-21T00:46:36;24.67;;;1.33;;
45534;SDS011;35892;48.798;9.698;2022-08-21T00:49:06;6.25;;;0.57;;
45534;SDS011;35892;48.798;9.698;2022-08-21T00:51:39;4.03;;;0.95;;
45534;SDS011;35892;48.798;9.698;2022-08-21T00:54:16;4.47;;;0.82;;
45534;SDS011;35892;48.798;9.698;2022-08-21T00:56:48;24.77;;;1.30;;
45534;SDS011;35892;48.798;9.698;2022-08-21T00:59:26;15.43;;;1.00;;
45534;SDS011;35892;48.798;9.698;2022-08-21T01:01:57;5.20;;;0.88;;
45534;SDS011;35892;48.798;9.698;2022-08-21T01:04:24;15.70;;;1.38;;
45534;SDS011;35892;48.798;9.698;2022-08-21T01:06:51;11.07;;;1.25;;
45534;SDS011;35892;48.798;9.698;2022-08-21T01:09:19;4.25;;;0.80;;
45534;SDS011;35892;48.798;9.698;2022-08-21T01:11:46;9.77;;;1.13;;
45534;SDS011;35892;48.798;9.698;2022-08-21T01:14:15;12.23;;;1.17;;
45534;SDS011;35892;48.798;9.698;2022-08-21T01:16:47;13.73;;;1.00;;
45534;SDS011;35892;48.798;9.698;2022-08-21T01:19:18;21.45;;;1.20;;
45534;SDS011;35892;48.798;9.698;2022-08-21T01:21:47;8.48;;;0.93;;
45534;SDS011;35892;48.798;9.698;2022-08-21T01:24:14;9.98;;;0.60;;
45534;SDS011;35892;48.798;9.698;2022-08-21T01:26:41;6.35;;;0.80;;
45534;SDS011;35892;48.798;9.698;2022-08-21T01:31:36;33.78;;;1.80;;
45534;SDS011;35892;48.798;9.698;2022-08-21T01:34:05;6.78;;;0.57;;
45534;SDS011;35892;48.798;9.698;2022-08-21T01:36:32;21.15;;;1.17;;
45534;SDS011;35892;48.798;9.698;2022-08-21T01:39:05;14.27;;;0.95;;
45534;SDS011;35892;48.798;9.698;2022-08-21T01:41:35;10.75;;;0.95;;
45534;SDS011;35892;48.798;9.698;2022-08-21T01:44:02;23.00;;;1.33;;
45534;SDS011;35892;48.798;9.698;2022-08-21T01:46:29;37.35;;;2.08;;
45534;SDS011;35892;48.798;9.698;2022-08-21T01:48:56;9.10;;;0.85;;
45534;SDS011;35892;48.798;9.698;2022-08-21T01:51:23;6.63;;;0.80;;
45534;SDS011;35892;48.798;9.698;2022-08-21T01:53:50;14.10;;;1.13;;
45534;SDS011;35892;48.798;9.698;2022-08-21T01:56:19;13.85;;;0.90;;
45534;SDS011;35892;48.798;9.698;2022-08-21T01:58:48;3.67;;;0.80;;
45534;SDS011;35892;48.798;9.698;2022-08-21T02:01:15;2.38;;;1.00;;
45534;SDS011;35892;48.798;9.698;2022-08-21T02:03:46;12.90;;;1.30;;
45534;SDS011;35892;48.798;9.698;2022-08-21T02:06:14;3.25;;;1.00;;
45534;SDS011;35892;48.798;9.698;2022-08-21T02:08:45;20.90;;;1.50;;
45534;SDS011;35892;48.798;9.698;2022-08-21T02:11:16;45.40;;;2.20;;
45534;SDS011;35892;48.798;9.698;2022-08-21T02:13:43;30.30;;;1.77;;
45534;SDS011;35892;48.798;9.698;2022-08-21T02:16:10;33.75;;;1.70;;
45534;SDS011;35892;48.798;9.698;2022-08-21T02:18:44;30.83;;;1.58;;
45534;SDS011;35892;48.798;9.698;2022-08-21T02:21:13;6.00;;;0.85;;
45534;SDS011;35892;48.798;9.698;2022-08-21T02:23:42;5.45;;;0.77;;
45534;SDS011;35892;48.798;9.698;2022-08-21T02:26:12;1.38;;;0.70;;
45534;SDS011;35892;48.798;9.698;2022-08-21T02:28:43;6.32;;;0.77;;
45534;SDS011;35892;48.798;9.698;2022-08-21T02:31:10;4.13;;;0.75;;
45534;SDS011;35892;48.798;9.698;2022-08-21T02:33:42;1.23;;;0.68;;
45534;SDS011;35892;48.798;9.698;2022-08-21T02:36:11;1.33;;;0.90;;
45534;SDS011;35892;48.798;9.698;2022-08-21T02:38:39;29.35;;;1.58;;
45534;SDS011;35892;48.798;9.698;2022-08-21T02:41:09;14.52;;;0.80;;
45534;SDS011;35892;48.798;9.698;2022-08-21T02:43:44;6.38;;;0.95;;
45534;SDS011;35892;48.798;9.698;2022-08-21T02:46:11;4.00;;;1.15;;
45534;SDS011;35892;48.798;9.698;2022-08-21T02:48:42;1.85;;;0.63;;
45534;SDS011;35892;48.798;9.698;2022-08-21T02:51:11;12.55;;;1.10;;
45534;SDS011;35892;48.798;9.698;2022-08-21T02:53:41;5.68;;;0.80;;
45534;SDS011;35892;48.798;9.698;2022-08-21T02:56:09;7.05;;;1.05;;
45534;SDS011;35892;48.798;9.698;2022-08-21T02:58:45;12.73;;;1.20;;
45534;SDS011;35892;48.798;9.698;2022-08-21T03:01:19;6.05;;;0.73;;
45534;SDS011;35892;48.798;9.698;2022-08-21T03:03:47;13.15;;;0.90;;
45534;SDS011;35892;48.798;9.698;2022-08-21T03:06:18;7.97;;;1.00;;
45534;SDS011;35892;48.798;9.698;2022-08-21T03:08:46;17.98;;;1.15;;
45534;SDS011;35892;48.798;9.698;2022-08-21T03:11:15;6.85;;;1.20;;
45534;SDS011;35892;48.798;9.698;2022-08-21T03:13:43;18.65;;;1.52;;
45534;SDS011;35892;48.798;9.698;2022-08-21T03:16:10;14.27;;;1.13;;
45534;SDS011;35892;48.798;9.698;2022-08-21T03:18:39;8.10;;;1.15;;
45534;SDS011;35892;48.798;9.698;2022-08-21T03:21:06;7.20;;;1.05;;
45534;SDS011;35892;48.798;9.698;2022-08-21T03:23:33;10.77;;;1.10;;
45534;SDS011;35892;48.798;9.698;2022-08-21T03:26:00;8.63;;;1.00;;
45534;SDS011;35892;48.798;9.698;2022-08-21T03:28:29;6.30;;;0.95;;
45534;SDS011;35892;48.798;9.698;2022-08-21T03:30:59;2.25;;;1.10;;
45534;SDS011;35892;48.798;9.698;2022-08-21T03:33:25;19.55;;;2.25;;
45534;SDS011;35892;48.798;9.698;2022-08-21T03:35:58;5.95;;;1.17;;
45534;SDS011;35892;48.798;9.698;2022-08-21T03:38:28;6.85;;;1.02;;
45534;SDS011;35892;48.798;9.698;2022-08-21T03:40:56;37.10;;;1.65;;
45534;SDS011;35892;48.798;9.698;2022-08-21T03:43:25;19.05;;;1.20;;
45534;SDS011;35892;48.798;9.698;2022-08-21T03:45:56;5.93;;;1.08;;
45534;SDS011;35892;48.798;9.698;2022-08-21T03:48:23;9.82;;;1.05;;
45534;SDS011;35892;48.798;9.698;2022-08-21T03:50:51;7.90;;;1.13;;
45534;SDS011;35892;48.798;9.698;2022-08-21T03:53:18;11.85;;;1.15;;
45534;SDS011;35892;48.798;9.698;2022-08-21T03:55:46;2.28;;;0.63;;
45534;SDS011;35892;48.798;9.698;2022-08-21T03:58:19;6.38;;;0.98;;
45534;SDS011;35892;48.798;9.698;2022-08-21T04:00:49;23.67;;;1.17;;
45534;SDS011;35892;48.798;9.698;2022-08-21T04:03:18;17.77;;;1.13;;
45534;SDS011;35892;48.798;9.698;2022-08-21T04:05:46;4.75;;;0.60;;
45534;SDS011;35892;48.798;9.698;2022-08-21T04:08:16;14.70;;;1.15;;
45534;SDS011;35892;48.798;9.698;2022-08-21T04:10:45;4.80;;;1.25;;
45534;SDS011;35892;48.798;9.698;2022-08-21T04:13:14;3.92;;;0.80;;
45534;SDS011;35892;48.798;9.698;2022-08-21T04:15:41;1.27;;;0.73;;
45534;SDS011;35892;48.798;9.698;2022-08-21T04:18:10;4.90;;;0.85;;
45534;SDS011;35892;48.798;9.698;2022-08-21T04:20:40;4.82;;;0.80;;
45534;SDS011;35892;48.798;9.698;2022-08-21T04:23:15;3.30;;;0.80;;
45534;SDS011;35892;48.798;9.698;2022-08-21T04:25:49;11.27;;;1.23;;
45534;SDS011;35892;48.798;9.698;2022-08-21T04:28:17;7.38;;;0.80;;
45534;SDS011;35892;48.798;9.698;2022-08-21T04:30:44;14.25;;;1.13;;
45534;SDS011;35892;48.798;9.698;2022-08-21T04:33:13;16.42;;;1.45;;
45534;SDS011;35892;48.798;9.698;2022-08-21T04:35:40;3.33;;;1.40;;
45534;SDS011;35892;48.798;9.698;2022-08-21T04:38:08;5.55;;;0.90;;
45534;SDS011;35892;48.798;9.698;2022-08-21T04:40:35;34.92;;;1.75;;
45534;SDS011;35892;48.798;9.698;2022-08-21T04:43:04;26.98;;;1.58;;
45534;SDS011;35892;48.798;9.698;2022-08-21T04:45:43;8.10;;;1.13;;
45534;SDS011;35892;48.798;9.698;2022-08-21T04:48:15;25.60;;;1.30;;
45534;SDS011;35892;48.798;9.698;2022-08-21T04:50:52;7.00;;;0.60;;
45534;SDS011;35892;48.798;9.698;2022-08-21T04:55:49;4.60;;;1.17;;
45534;SDS011;35892;48.798;9.698;2022-08-21T04:58:21;3.38;;;1.00;;
45534;SDS011;35892;48.798;9.698;2022-08-21T05:00:52;8.43;;;1.00;;
45534;SDS011;35892;48.798;9.698;2022-08-21T05:03:23;11.18;;;1.00;;
45534;SDS011;35892;48.798;9.698;2022-08-21T05:05:53;2.72;;;1.20;;
45534;SDS011;35892;48.798;9.698;2022-08-21T05:08:21;4.75;;;0.95;;
45534;SDS011;35892;48.798;9.698;2022-08-21T05:10:51;4.00;;;0.80;;
45534;SDS011;35892;48.798;9.698;2022-08-21T05:13:25;10.05;;;0.90;;
45534;SDS011;35892;48.798;9.698;2022-08-21T05:15:55;3.15;;;0.68;;
45534;SDS011;35892;48.798;9.698;2022-08-21T05:18:22;23.70;;;1.40;;
45534;SDS011;35892;48.798;9.698;2022-08-21T05:20:49;4.50;;;1.20;;
45534;SDS011;35892;48.798;9.698;2022-08-21T05:23:16;3.28;;;0.70;;
45534;SDS011;35892;48.798;9.698;2022-08-21T05:25:45;21.10;;;1.05;;
45534;SDS011;35892;48.798;9.698;2022-08-21T05:28:14;0.95;;;0.80;;
45534;SDS011;35892;48.798;9.698;2022-08-21T05:30:44;12.43;;;1.02;;
45534;SDS011;35892;48.798;9.698;2022-08-21T05:33:11;9.90;;;1.10;;
45534;SDS011;35892;48.798;9.698;2022-08-21T05:35:38;30.83;;;1.52;;
45534;SDS011;35892;48.798;9.698;2022-08-21T05:38:05;4.43;;;0.80;;
45534;SDS011;35892;48.798;9.698;2022-08-21T05:40:42;1.02;;;0.70;;
45534;SDS011;35892;48.798;9.698;2022-08-21T05:43:11;9.48;;;1.25;;
45534;SDS011;35892;48.798;9.698;2022-08-21T05:45:39;0.57;;;0.50;;
45534;SDS011;35892;48.798;9.698;2022-08-21T05:50:38;1.05;;;0.90;;
45534;SDS011;35892;48.798;9.698;2022-08-21T05:53:05;1.27;;;1.17;;
45534;SDS011;35892;48.798;9.698;2022-08-21T05:55:33;0.85;;;0.85;;
45534;SDS011;35892;48.798;9.698;2022-08-21T05:58:10;2.10;;;1.60;;
45534;SDS011;35892;48.798;9.698;2022-08-21T06:00:37;4.07;;;3.05;;
45534;SDS011;35892;48.798;9.698;2022-08-21T06:03:09;4.57;;;4.18;;
45534;SDS011;35892;48.798;9.698;2022-08-21T06:05:37;1.80;;;1.70;;
45534;SDS011;35892;48.798;9.698;2022-08-21T06:08:04;2.35;;;1.60;;
45534;SDS011;35892;48.798;9.698;2022-08-21T06:10:31;1.92;;;1.50;;
45534;SDS011;35892;48.798;9.698;2022-08-21T06:13:00;2.45;;;1.67;;
45534;SDS011;35892;48.798;9.698;2022-08-21T06:15:27;1.05;;;1.00;;
45534;SDS011;35892;48.798;9.698;2022-08-21T06:17:54;1.48;;;1.38;;
45534;SDS011;35892;48.798;9.698;2022-08-21T06:20:23;0.80;;;0.80;;
45534;SDS011;35892;48.798;9.698;2022-08-21T06:22:50;1.02;;;0.90;;
45534;SDS011;35892;48.798;9.698;2022-08-21T06:25:17;2.17;;;1.48;;
45534;SDS011;35892;48.798;9.698;2022-08-21T06:27:46;1.35;;;1.15;;
45534;SDS011;35892;48.798;9.698;2022-08-21T06:30:15;1.20;;;1.10;;
45534;SDS011;35892;48.798;9.698;2022-08-21T06:32:42;1.70;;;1.30;;
45534;SDS011;35892;48.798;9.698;2022-08-21T06:35:09;1.83;;;1.38;;
45534;SDS011;35892;48.798;9.698;2022-08-21T06:37:36;4.80;;;2.42;;
45534;SDS011;35892;48.798;9.698;2022-08-21T06:40:03;3.15;;;2.95;;
45534;SDS011;35892;48.798;9.698;2022-08-21T06:42:37;2.38;;;2.17;;
45534;SDS011;35892;48.798;9.698;2022-08-21T06:45:08;3.60;;;3.30;;
45534;SDS011;35892;48.798;9.698;2022-08-21T06:47:36;4.20;;;3.80;;
45534;SDS011;35892;48.798;9.698;2022-08-21T06:50:05;5.40;;;4.90;;
45534;SDS011;35892;48.798;9.698;2022-08-21T06:52:34;4.78;;;4.38;;
45534;SDS011;35892;48.798;9.698;2022-08-21T06:55:07;5.25;;;3.88;;
45534;SDS011;35892;48.798;9.698;2022-08-21T06:57:35;3.70;;;3.10;;
45534;SDS011;35892;48.798;9.698;2022-08-21T07:00:05;2.67;;;1.60;;
45534;SDS011;35892;48.798;9.698;2022-08-21T07:02:33;2.45;;;2.25;;
45534;SDS011;35892;48.798;9.698;2022-08-21T07:05:06;3.50;;;2.83;;
45534;SDS011;35892;48.798;9.698;2022-08-21T07:07:43;3.10;;;2.70;;
45534;SDS011;35892;48.798;9.698;2022-08-21T07:10:11;3.17;;;2.92;;
45534;SDS011;35892;48.798;9.698;2022-08-21T07:12:50;2.90;;;2.70;;
45534;SDS011;35892;48.798;9.698;2022-08-21T07:15:26;4.60;;;3.00;;
45534;SDS011;35892;48.798;9.698;2022-08-21T07:17:55;3.00;;;2.58;;
45534;SDS011;35892;48.798;9.698;2022-08-21T07:20:26;2.70;;;2.30;;
45534;SDS011;35892;48.798;9.698;2022-08-21T07:22:54;3.80;;;2.20;;
45534;SDS011;35892;48.798;9.698;2022-08-21T07:25:23;2.22;;;2.03;;
45534;SDS011;35892;48.798;9.698;2022-08-21T07:27:52;3.33;;;2.13;;
45534;SDS011;35892;48.798;9.698;2022-08-21T07:30:19;2.30;;;2.10;;
45534;SDS011;35892;48.798;9.698;2022-08-21T07:32:47;6.20;;;3.85;;
45534;SDS011;35892;48.798;9.698;2022-08-21T07:35:17;8.15;;;2.50;;
45534;SDS011;35892;48.798;9.698;2022-08-21T07:37:45;2.90;;;2.10;;
45534;SDS011;35892;48.798;9.698;2022-08-21T07:40:12;2.55;;;2.10;;
45534;SDS011;35892;48.798;9.698;2022-08-21T07:42:44;3.17;;;2.03;;
45534;SDS011;35892;48.798;9.698;2022-08-21T07:45:13;2.55;;;2.20;;
45534;SDS011;35892;48.798;9.698;2022-08-21T07:47:41;3.90;;;2.58;;
45534;SDS011;35892;48.798;9.698;2022-08-21T07:50:09;5.85;;;2.22;;
45534;SDS011;35892;48.798;9.698;2022-08-21T07:52:37;1.80;;;1.50;;
45534;SDS011;35892;48.798;9.698;2022-08-21T07:55:05;2.72;;;1.70;;
45534;SDS011;35892;48.798;9.698;2022-08-21T07:57:33;2.55;;;1.88;;
45534;SDS011;35892;48.798;9.698;2022-08-21T08:00:00;3.20;;;2.30;;
45534;SDS011;35892;48.798;9.698;2022-08-21T08:02:29;3.15;;;1.75;;
45534;SDS011;35892;48.798;9.698;2022-08-21T08:05:03;2.97;;;2.28;;
45534;SDS011;35892;48.798;9.698;2022-08-21T08:07:33;4.60;;;2.70;;
45534;SDS011;35892;48.798;9.698;2022-08-21T08:10:01;5.80;;;2.45;;
45534;SDS011;35892;48.798;9.698;2022-08-21T08:12:29;3.15;;;2.45;;
45534;SDS011;35892;48.798;9.698;2022-08-21T08:14:59;4.72;;;2.33;;
45534;SDS011;35892;48.798;9.698;2022-08-21T08:17:27;2.50;;;1.75;;
45534;SDS011;35892;48.798;9.698;2022-08-21T08:19:54;5.10;;;2.38;;
45534;SDS011;35892;48.798;9.698;2022-08-21T08:22:22;4.78;;;2.65;;
45534;SDS011;35892;48.798;9.698;2022-08-21T08:24:50;4.82;;;2.38;;
45534;SDS011;35892;48.798;9.698;2022-08-21T08:27:18;5.07;;;2.03;;
45534;SDS011;35892;48.798;9.698;2022-08-21T08:29:46;4.30;;;2.35;;
45534;SDS011;35892;48.798;9.698;2022-08-21T08:32:15;5.55;;;2.70;;
45534;SDS011;35892;48.798;9.698;2022-08-21T08:34:42;3.90;;;2.67;;
45534;SDS011;35892;48.798;9.698;2022-08-21T08:37:13;5.50;;;2.78;;
45534;SDS011;35892;48.798;9.698;2022-08-21T08:39:40;4.05;;;2.42;;
45534;SDS011;35892;48.798;9.698;2022-08-21T08:42:11;4.68;;;2.17;;
45534;SDS011;35892;48.798;9.698;2022-08-21T08:47:29;5.28;;;2.88;;
45534;SDS011;35892;48.798;9.698;2022-08-21T08:53:05;4.00;;;2.83;;
45534;SDS011;35892;48.798;9.698;2022-08-21T08:58:07;5.00;;;2.53;;
45534;SDS011;35892;48.798;9.698;2022-08-21T09:00:44;3.65;;;2.42;;
45534;SDS011;35892;48.798;9.698;2022-08-21T09:03:13;5.38;;;2.75;;
45534;SDS011;35892;48.798;9.698;2022-08-21T09:05:45;6.03;;;2.60;;
45534;SDS011;35892;48.798;9.698;2022-08-21T09:13:19;6.07;;;2.90;;
45534;SDS011;35892;48.798;9.698;2022-08-21T09:21:35;4.55;;;2.80;;
45534;SDS011;35892;48.798;9.698;2022-08-21T09:29:58;6.28;;;3.00;;
45534;SDS011;35892;48.798;9.698;2022-08-21T09:32:29;3.95;;;2.78;;
45534;SDS011;35892;48.798;9.698;2022-08-21T09:35:05;4.32;;;2.90;;
45534;SDS011;35892;48.798;9.698;2022-08-21T09:37:44;4.90;;;2.67;;
45534;SDS011;35892;48.798;9.698;2022-08-21T09:43:01;6.50;;;3.05;;
45534;SDS011;35892;48.798;9.698;2022-08-21T09:45:43;5.50;;;2.70;;
45534;SDS011;35892;48.798;9.698;2022-08-21T09:48:21;5.57;;;2.47;;
45534;SDS011;35892;48.798;9.698;2022-08-21T09:50:52;5.47;;;2.90;;
45534;SDS011;35892;48.798;9.698;2022-08-21T09:53:24;3.20;;;2.60;;
45534;SDS011;35892;48.798;9.698;2022-08-21T09:56:00;5.53;;;3.03;;
45534;SDS011;35892;48.798;9.698;2022-08-21T09:58:51;5.47;;;2.83;;
45534;SDS011;35892;48.798;9.698;2022-08-21T10:01:21;4.95;;;2.42;;
45534;SDS011;35892;48.798;9.698;2022-08-21T10:04:11;4.05;;;2.70;;
45534;SDS011;35892;48.798;9.698;2022-08-21T10:06:38;3.45;;;2.70;;
45534;SDS011;35892;48.798;9.698;2022-08-21T10:09:11;6.43;;;2.78;;
45534;SDS011;35892;48.798;9.698;2022-08-21T10:12:08;6.38;;;3.00;;
45534;SDS011;35892;48.798;9.698;2022-08-21T10:20:22;3.55;;;2.25;;
45534;SDS011;35892;48.798;9.698;2022-08-21T10:23:07;6.63;;;2.85;;
45534;SDS011;35892;48.798;9.698;2022-08-21T10:28:44;6.68;;;2.65;;
45534;SDS011;35892;48.798;9.698;2022-08-21T10:31:45;4.40;;;2.35;;
45534;SDS011;35892;48.798;9.698;2022-08-21T10:34:32;5.18;;;2.70;;
45534;SDS011;35892;48.798;9.698;2022-08-21T10:37:36;4.55;;;2.72;;
45534;SDS011;35892;48.798;9.698;2022-08-21T10:43:27;6.70;;;2.70;;
45534;SDS011;35892;48.798;9.698;2022-08-21T10:46:12;7.57;;;2.58;;
45534;SDS011;35892;48.798;9.698;2022-08-21T10:51:42;4.13;;;2.47;;
45534;SDS011;35892;48.798;9.698;2022-08-21T10:54:54;4.88;;;2.35;;
45534;SDS011;35892;48.798;9.698;2022-08-21T11:00:06;5.07;;;2.67;;
45534;SDS011;35892;48.798;9.698;2022-08-21T11:02:42;3.60;;;2.40;;
45534;SDS011;35892;48.798;9.698;2022-08-21T11:05:53;5.93;;;2.70;;
45534;SDS011;35892;48.798;9.698;2022-08-21T11:08:40;4.20;;;2.75;;
45534;SDS011;35892;48.798;9.698;2022-08-21T11:11:14;5.30;;;2.30;;
45534;SDS011;35892;48.798;9.698;2022-08-21T11:13:49;5.25;;;2.50;;
45534;SDS011;35892;48.798;9.698;2022-08-21T11:16:23;4.68;;;2.53;;
45534;SDS011;35892;48.798;9.698;2022-08-21T11:19:09;5.00;;;2.67;;
45534;SDS011;35892;48.798;9.698;2022-08-21T11:21:56;3.92;;;2.10;;
45534;SDS011;35892;48.798;9.698;2022-08-21T11:24:44;6.00;;;2.38;;
45534;SDS011;35892;48.798;9.698;2022-08-21T11:27:31;4.60;;;2.55;;
45534;SDS011;35892;48.798;9.698;2022-08-21T11:30:00;5.30;;;2.67;;
45534;SDS011;35892;48.798;9.698;2022-08-21T11:32:50;4.72;;;2.28;;
45534;SDS011;35892;48.798;9.698;2022-08-21T11:35:39;4.22;;;2.40;;
45534;SDS011;35892;48.798;9.698;2022-08-21T11:46:23;5.70;;;2.53;;
45534;SDS011;35892;48.798;9.698;2022-08-21T11:51:47;5.85;;;2.92;;
45534;SDS011;35892;48.798;9.698;2022-08-21T11:57:05;4.72;;;2.10;;
45534;SDS011;35892;48.798;9.698;2022-08-21T11:59:44;4.65;;;2.30;;
45534;SDS011;35892;48.798;9.698;2022-08-21T12:02:23;6.75;;;2.55;;
45534;SDS011;35892;48.798;9.698;2022-08-21T12:04:56;5.45;;;2.20;;
45534;SDS011;35892;48.798;9.698;2022-08-21T12:07:38;4.03;;;2.38;;
45534;SDS011;35892;48.798;9.698;2022-08-21T12:10:18;4.70;;;2.50;;
45534;SDS011;35892;48.798;9.698;2022-08-21T12:13:04;6.20;;;2.88;;
45534;SDS011;35892;48.798;9.698;2022-08-21T12:15:37;8.13;;;2.33;;
45534;SDS011;35892;48.798;9.698;2022-08-21T12:18:22;3.97;;;2.45;;
45534;SDS011;35892;48.798;9.698;2022-08-21T12:21:03;5.05;;;2.30;;
45534;SDS011;35892;48.798;9.698;2022-08-21T12:26:50;3.60;;;2.33;;
45534;SDS011;35892;48.798;9.698;2022-08-21T12:29:25;4.95;;;2.65;;
45534;SDS011;35892;48.798;9.698;2022-08-21T12:40:11;2.85;;;2.08;;
45534;SDS011;35892;48.798;9.698;2022-08-21T12:42:55;3.00;;;1.80;;
45534;SDS011;35892;48.798;9.698;2022-08-21T12:45:34;7.35;;;2.53;;
45534;SDS011;35892;48.798;9.698;2022-08-21T12:48:06;3.60;;;2.30;;
45534;SDS011;35892;48.798;9.698;2022-08-21T12:50:44;4.60;;;2.30;;
45534;SDS011;35892;48.798;9.698;2022-08-21T12:56:03;5.40;;;2.67;;
45534;SDS011;35892;48.798;9.698;2022-08-21T12:58:49;4.40;;;2.20;;
45534;SDS011;35892;48.798;9.698;2022-08-21T13:04:08;5.85;;;2.30;;
45534;SDS011;35892;48.798;9.698;2022-08-21T13:06:43;4.97;;;2.10;;
45534;SDS011;35892;48.798;9.698;2022-08-21T13:09:12;2.55;;;1.98;;
45534;SDS011;35892;48.798;9.698;2022-08-21T13:11:41;5.25;;;2.40;;
45534;SDS011;35892;48.798;9.698;2022-08-21T13:14:22;3.45;;;1.88;;
45534;SDS011;35892;48.798;9.698;2022-08-21T13:16:56;3.30;;;1.90;;
45534;SDS011;35892;48.798;9.698;2022-08-21T13:19:25;4.05;;;2.22;;
45534;SDS011;35892;48.798;9.698;2022-08-21T13:21:53;2.40;;;1.83;;
45534;SDS011;35892;48.798;9.698;2022-08-21T13:27:25;2.95;;;2.08;;
45534;SDS011;35892;48.798;9.698;2022-08-21T13:32:32;5.45;;;2.25;;
45534;SDS011;35892;48.798;9.698;2022-08-21T13:35:15;4.05;;;2.33;;
45534;SDS011;35892;48.798;9.698;2022-08-21T13:37:48;3.95;;;2.10;;
45534;SDS011;35892;48.798;9.698;2022-08-21T13:40:25;2.53;;;1.98;;
45534;SDS011;35892;48.798;9.698;2022-08-21T13:42:58;3.88;;;1.95;;
45534;SDS011;35892;48.798;9.698;2022-08-21T13:45:27;5.22;;;2.38;;
45534;SDS011;35892;48.798;9.698;2022-08-21T13:47:59;5.13;;;1.95;;
45534;SDS011;35892;48.798;9.698;2022-08-21T13:50:31;3.83;;;2.10;;
45534;SDS011;35892;48.798;9.698;2022-08-21T13:53:05;3.08;;;2.03;;
45534;SDS011;35892;48.798;9.698;2022-08-21T13:55:41;3.42;;;2.00;;
45534;SDS011;35892;48.798;9.698;2022-08-21T13:58:10;3.55;;;2.05;;
45534;SDS011;35892;48.798;9.698;2022-08-21T14:00:47;3.10;;;2.00;;
45534;SDS011;35892;48.798;9.698;2022-08-21T14:06:16;2.63;;;2.00;;
45534;SDS011;35892;48.798;9.698;2022-08-21T14:09:21;4.95;;;2.05;;
45534;SDS011;35892;48.798;9.698;2022-08-21T14:11:43;3.88;;;2.03;;
45534;SDS011;35892;48.798;9.698;2022-08-21T14:14:17;4.85;;;1.90;;
45534;SDS011;35892;48.798;9.698;2022-08-21T14:16:46;3.33;;;1.88;;
45534;SDS011;35892;48.798;9.698;2022-08-21T14:21:52;2.13;;;1.73;;
45534;SDS011;35892;48.798;9.698;2022-08-21T14:29:19;2.92;;;1.70;;
45534;SDS011;35892;48.798;9.698;2022-08-21T14:31:52;3.30;;;1.95;;
45534;SDS011;35892;48.798;9.698;2022-08-21T14:34:22;3.25;;;1.88;;
45534;SDS011;35892;48.798;9.698;2022-08-21T14:36:51;2.50;;;1.85;;
45534;SDS011;35892;48.798;9.698;2022-08-21T14:39:21;2.90;;;1.90;;
45534;SDS011;35892;48.798;9.698;2022-08-21T14:41:48;3.63;;;1.98;;
45534;SDS011;35892;48.798;9.698;2022-08-21T14:44:19;2.70;;;1.85;;
45534;SDS011;35892;48.798;9.698;2022-08-21T14:46:45;2.92;;;1.75;;
45534;SDS011;35892;48.798;9.698;2022-08-21T14:49:23;3.55;;;1.90;;
45534;SDS011;35892;48.798;9.698;2022-08-21T14:51:53;4.27;;;2.00;;
45534;SDS011;35892;48.798;9.698;2022-08-21T14:54:24;3.10;;;1.90;;
45534;SDS011;35892;48.798;9.698;2022-08-21T14:57:00;2.65;;;1.80;;
45534;SDS011;35892;48.798;9.698;2022-08-21T14:59:31;2.60;;;1.80;;
45534;SDS011;35892;48.798;9.698;2022-08-21T15:02:01;3.17;;;1.70;;
45534;SDS011;35892;48.798;9.698;2022-08-21T15:04:30;3.55;;;1.98;;
45534;SDS011;35892;48.798;9.698;2022-08-21T15:06:58;2.67;;;1.77;;
45534;SDS011;35892;48.798;9.698;2022-08-21T15:09:25;2.22;;;1.48;;
45534;SDS011;35892;48.798;9.698;2022-08-21T15:11:53;3.88;;;2.05;;
45534;SDS011;35892;48.798;9.698;2022-08-21T15:14:26;1.88;;;1.40;;
45534;SDS011;35892;48.798;9.698;2022-08-21T15:16:55;3.08;;;1.83;;
45534;SDS011;35892;48.798;9.698;2022-08-21T15:19:22;2.83;;;1.90;;
45534;SDS011;35892;48.798;9.698;2022-08-21T15:21:53;4.82;;;1.90;;
45534;SDS011;35892;48.798;9.698;2022-08-21T15:24:20;4.78;;;2.00;;
45534;SDS011;35892;48.798;9.698;2022-08-21T15:26:49;3.88;;;2.08;;
45534;SDS011;35892;48.798;9.698;2022-08-21T15:29:17;3.05;;;1.95;;
45534;SDS011;35892;48.798;9.698;2022-08-21T15:31:52;3.78;;;2.28;;
45534;SDS011;35892;48.798;9.698;2022-08-21T15:34:26;3.22;;;2.20;;
45534;SDS011;35892;48.798;9.698;2022-08-21T15:36:54;4.10;;;1.85;;
45534;SDS011;35892;48.798;9.698;2022-08-21T15:39:25;3.47;;;1.88;;
45534;SDS011;35892;48.798;9.698;2022-08-21T15:41:56;3.38;;;1.90;;
45534;SDS011;35892;48.798;9.698;2022-08-21T15:44:24;3.47;;;1.80;;
45534;SDS011;35892;48.798;9.698;2022-08-21T15:46:53;5.28;;;1.88;;
45534;SDS011;35892;48.798;9.698;2022-08-21T15:49:21;3.60;;;1.98;;
45534;SDS011;35892;48.798;9.698;2022-08-21T15:51:51;3.30;;;2.00;;
45534;SDS011;35892;48.798;9.698;2022-08-21T15:54:20;2.65;;;1.60;;
45534;SDS011;35892;48.798;9.698;2022-08-21T15:56:49;4.03;;;2.00;;
45534;SDS011;35892;48.798;9.698;2022-08-21T15:59:18;3.38;;;1.95;;
45534;SDS011;35892;48.798;9.698;2022-08-21T16:01:51;2.20;;;1.52;;
45534;SDS011;35892;48.798;9.698;2022-08-21T16:04:25;3.53;;;1.58;;
45534;SDS011;35892;48.798;9.698;2022-08-21T16:06:57;5.40;;;2.08;;
45534;SDS011;35892;48.798;9.698;2022-08-21T16:09:35;3.47;;;1.65;;
45534;SDS011;35892;48.798;9.698;2022-08-21T16:12:02;4.45;;;2.15;;
45534;SDS011;35892;48.798;9.698;2022-08-21T16:14:31;3.13;;;2.08;;
45534;SDS011;35892;48.798;9.698;2022-08-21T16:17:00;3.40;;;1.77;;
45534;SDS011;35892;48.798;9.698;2022-08-21T16:19:27;2.95;;;1.73;;
45534;SDS011;35892;48.798;9.698;2022-08-21T16:21:54;4.30;;;2.03;;
45534;SDS011;35892;48.798;9.698;2022-08-21T16:24:21;3.33;;;2.05;;
45534;SDS011;35892;48.798;9.698;2022-08-21T16:26:48;3.63;;;1.67;;
45534;SDS011;35892;48.798;9.698;2022-08-21T16:29:25;2.67;;;1.67;;
45534;SDS011;35892;48.798;9.698;2022-08-21T16:31:59;3.70;;;1.80;;
45534;SDS011;35892;48.798;9.698;2022-08-21T16:34:29;4.17;;;2.13;;
45534;SDS011;35892;48.798;9.698;2022-08-21T16:36:57;3.33;;;1.70;;
45534;SDS011;35892;48.798;9.698;2022-08-21T16:39:23;2.90;;;1.75;;
45534;SDS011;35892;48.798;9.698;2022-08-21T16:41:52;2.63;;;1.63;;
45534;SDS011;35892;48.798;9.698;2022-08-21T16:44:22;3.08;;;1.80;;
45534;SDS011;35892;48.798;9.698;2022-08-21T16:46:55;2.65;;;1.70;;
45534;SDS011;35892;48.798;9.698;2022-08-21T16:49:27;3.67;;;1.90;;
45534;SDS011;35892;48.798;9.698;2022-08-21T16:51:53;5.30;;;1.80;;